sensor_id;sensor_type;location;lat;lon;timestamp;P1;durP1;ratioP1;P2;durP2;ratioP2
7080;SDS011;3582;51.506;11.948;2022-08-21T00:01:55;29.30;;;26.13;;
7080;SDS011;3582;51.506;11.948;2022-08-21T00:04:21;25.63;;;23.03;;
7080;SDS011;3582;51.506;11.948;2022-08-21T00:06:48;26.10;;;23.60;;
7080;SDS011;3582;51.506;11.948;2022-08-21T00:09:14;26.40;;;23.83;;
7080;SDS011;3582;51.506;11.948;2022-08-21T00:11:40;27.37;;;24.63;;
7080;SDS011;3582;51.506;11.948;2022-08-21T00:14:07;26.60;;;24.03;;
7080;SDS011;3582;51.506;11.948;2022-08-21T00:16:33;25.97;;;23.37;;
7080;SDS011;3582;51.506;11.948;2022-08-21T00:18:59;26.57;;;23.73;;
7080;SDS011;3582;51.506;11.948;2022-08-21T00:21:25;29.90;;;25.73;;
7080;SDS011;3582;51.506;11.948;2022-08-21T00:23:51;29.20;;;26.17;;
7080;SDS011;3582;51.506;11.948;2022-08-21T00:26:17;26.50;;;23.00;;
7080;SDS011;3582;51.506;11.948;2022-08-21T00:28:43;27.70;;;24.70;;
7080;SDS011;3582;51.506;11.948;2022-08-21T00:31:11;25.20;;;22.73;;
7080;SDS011;3582;51.506;11.948;2022-08-21T00:33:37;26.10;;;23.20;;
7080;SDS011;3582;51.506;11.948;2022-08-21T00:36:03;24.97;;;22.40;;
7080;SDS011;3582;51.506;11.948;2022-08-21T00:38:29;24.00;;;21.77;;
7080;SDS011;3582;51.506;11.948;2022-08-21T00:40:57;21.43;;;19.33;;
7080;SDS011;3582;51.506;11.948;2022-08-21T00:43:25;23.33;;;21.13;;
7080;SDS011;3582;51.506;11.948;2022-08-21T00:45:52;24.07;;;21.47;;
7080;SDS011;3582;51.506;11.948;2022-08-21T00:48:19;24.83;;;20.70;;
7080;SDS011;3582;51.506;11.948;2022-08-21T00:50:49;22.60;;;20.30;;
7080;SDS011;3582;51.506;11.948;2022-08-21T00:53:16;20.80;;;18.90;;
7080;SDS011;3582;51.506;11.948;2022-08-21T00:55:42;21.20;;;19.20;;
7080;SDS011;3582;51.506;11.948;2022-08-21T00:58:09;22.63;;;19.30;;
7080;SDS011;3582;51.506;11.948;2022-08-21T01:00:37;21.27;;;19.17;;
7080;SDS011;3582;51.506;11.948;2022-08-21T01:03:09;21.23;;;17.67;;
7080;SDS011;3582;51.506;11.948;2022-08-21T01:05:35;17.77;;;16.00;;
7080;SDS011;3582;51.506;11.948;2022-08-21T01:08:01;18.67;;;16.73;;
7080;SDS011;3582;51.506;11.948;2022-08-21T01:10:28;16.23;;;14.70;;
7080;SDS011;3582;51.506;11.948;2022-08-21T01:12:55;16.90;;;15.20;;
7080;SDS011;3582;51.506;11.948;2022-08-21T01:15:22;14.73;;;13.33;;
7080;SDS011;3582;51.506;11.948;2022-08-21T01:17:48;16.97;;;15.27;;
7080;SDS011;3582;51.506;11.948;2022-08-21T01:20:14;14.63;;;13.30;;
7080;SDS011;3582;51.506;11.948;2022-08-21T01:22:41;14.50;;;13.10;;
7080;SDS011;3582;51.506;11.948;2022-08-21T01:25:08;13.73;;;12.43;;
7080;SDS011;3582;51.506;11.948;2022-08-21T01:27:34;14.30;;;12.80;;
7080;SDS011;3582;51.506;11.948;2022-08-21T01:30:03;14.60;;;13.10;;
7080;SDS011;3582;51.506;11.948;2022-08-21T01:32:30;11.50;;;10.30;;
7080;SDS011;3582;51.506;11.948;2022-08-21T01:34:56;11.30;;;10.30;;
7080;SDS011;3582;51.506;11.948;2022-08-21T01:37:22;10.73;;;9.70;;
7080;SDS011;3582;51.506;11.948;2022-08-21T01:39:48;12.70;;;11.43;;
7080;SDS011;3582;51.506;11.948;2022-08-21T01:42:14;11.53;;;10.33;;
7080;SDS011;3582;51.506;11.948;2022-08-21T01:44:40;11.13;;;10.23;;
7080;SDS011;3582;51.506;11.948;2022-08-21T01:47:08;9.67;;;8.63;;
7080;SDS011;3582;51.506;11.948;2022-08-21T01:49:36;11.43;;;9.33;;
7080;SDS011;3582;51.506;11.948;2022-08-21T01:52:02;9.60;;;8.73;;
7080;SDS011;3582;51.506;11.948;2022-08-21T01:54:28;10.63;;;9.53;;
7080;SDS011;3582;51.506;11.948;2022-08-21T01:56:54;9.53;;;8.73;;
7080;SDS011;3582;51.506;11.948;2022-08-21T01:59:21;9.70;;;8.73;;
7080;SDS011;3582;51.506;11.948;2022-08-21T02:01:47;8.97;;;7.97;;
7080;SDS011;3582;51.506;11.948;2022-08-21T02:04:14;12.00;;;7.57;;
7080;SDS011;3582;51.506;11.948;2022-08-21T02:06:40;7.70;;;7.00;;
7080;SDS011;3582;51.506;11.948;2022-08-21T02:09:07;8.20;;;7.40;;
7080;SDS011;3582;51.506;11.948;2022-08-21T02:11:34;16.10;;;7.33;;
7080;SDS011;3582;51.506;11.948;2022-08-21T02:14:00;7.17;;;6.43;;
7080;SDS011;3582;51.506;11.948;2022-08-21T02:16:26;7.90;;;7.13;;
7080;SDS011;3582;51.506;11.948;2022-08-21T02:18:52;8.40;;;6.80;;
7080;SDS011;3582;51.506;11.948;2022-08-21T02:21:18;6.87;;;6.23;;
7080;SDS011;3582;51.506;11.948;2022-08-21T02:23:44;6.43;;;5.90;;
7080;SDS011;3582;51.506;11.948;2022-08-21T02:26:10;9.70;;;6.73;;
7080;SDS011;3582;51.506;11.948;2022-08-21T02:28:36;6.70;;;6.00;;
7080;SDS011;3582;51.506;11.948;2022-08-21T02:31:03;6.47;;;5.87;;
7080;SDS011;3582;51.506;11.948;2022-08-21T02:33:29;9.20;;;6.33;;
7080;SDS011;3582;51.506;11.948;2022-08-21T02:35:56;8.73;;;6.33;;
7080;SDS011;3582;51.506;11.948;2022-08-21T02:38:25;8.03;;;5.77;;
7080;SDS011;3582;51.506;11.948;2022-08-21T02:40:51;9.30;;;5.90;;
7080;SDS011;3582;51.506;11.948;2022-08-21T02:43:18;6.20;;;5.60;;
7080;SDS011;3582;51.506;11.948;2022-08-21T02:45:45;7.40;;;6.00;;
7080;SDS011;3582;51.506;11.948;2022-08-21T02:48:13;11.10;;;6.17;;
7080;SDS011;3582;51.506;11.948;2022-08-21T02:50:47;6.83;;;5.63;;
7080;SDS011;3582;51.506;11.948;2022-08-21T02:53:13;13.80;;;5.03;;
7080;SDS011;3582;51.506;11.948;2022-08-21T02:55:41;5.93;;;5.33;;
7080;SDS011;3582;51.506;11.948;2022-08-21T02:58:07;6.67;;;5.30;;
7080;SDS011;3582;51.506;11.948;2022-08-21T03:00:34;6.40;;;4.73;;
7080;SDS011;3582;51.506;11.948;2022-08-21T03:03:00;5.13;;;4.63;;
7080;SDS011;3582;51.506;11.948;2022-08-21T03:05:27;5.93;;;5.53;;
7080;SDS011;3582;51.506;11.948;2022-08-21T03:07:53;7.53;;;4.83;;
7080;SDS011;3582;51.506;11.948;2022-08-21T03:10:19;6.40;;;5.83;;
7080;SDS011;3582;51.506;11.948;2022-08-21T03:12:46;9.50;;;6.60;;
7080;SDS011;3582;51.506;11.948;2022-08-21T03:15:13;6.77;;;5.57;;
7080;SDS011;3582;51.506;11.948;2022-08-21T03:17:39;6.10;;;5.60;;
7080;SDS011;3582;51.506;11.948;2022-08-21T03:20:06;6.53;;;5.67;;
7080;SDS011;3582;51.506;11.948;2022-08-21T03:22:33;8.40;;;5.30;;
7080;SDS011;3582;51.506;11.948;2022-08-21T03:24:59;6.83;;;5.73;;
7080;SDS011;3582;51.506;11.948;2022-08-21T03:27:26;6.07;;;5.53;;
7080;SDS011;3582;51.506;11.948;2022-08-21T03:29:53;10.30;;;5.40;;
7080;SDS011;3582;51.506;11.948;2022-08-21T03:32:19;8.07;;;6.10;;
7080;SDS011;3582;51.506;11.948;2022-08-21T03:34:45;7.17;;;6.30;;
7080;SDS011;3582;51.506;11.948;2022-08-21T03:37:11;12.63;;;6.70;;
7080;SDS011;3582;51.506;11.948;2022-08-21T03:39:38;10.20;;;6.33;;
7080;SDS011;3582;51.506;11.948;2022-08-21T03:42:04;9.10;;;5.90;;
7080;SDS011;3582;51.506;11.948;2022-08-21T03:44:31;7.20;;;6.60;;
7080;SDS011;3582;51.506;11.948;2022-08-21T03:46:57;5.50;;;5.00;;
7080;SDS011;3582;51.506;11.948;2022-08-21T03:49:23;5.93;;;5.40;;
7080;SDS011;3582;51.506;11.948;2022-08-21T03:51:49;5.30;;;4.80;;
7080;SDS011;3582;51.506;11.948;2022-08-21T03:54:15;12.13;;;6.87;;
7080;SDS011;3582;51.506;11.948;2022-08-21T03:56:41;9.30;;;7.13;;
7080;SDS011;3582;51.506;11.948;2022-08-21T03:59:07;7.13;;;6.53;;
7080;SDS011;3582;51.506;11.948;2022-08-21T04:01:33;8.13;;;6.93;;
7080;SDS011;3582;51.506;11.948;2022-08-21T04:03:59;11.60;;;7.00;;
7080;SDS011;3582;51.506;11.948;2022-08-21T04:06:25;11.03;;;7.20;;
7080;SDS011;3582;51.506;11.948;2022-08-21T04:08:52;9.57;;;7.30;;
7080;SDS011;3582;51.506;11.948;2022-08-21T04:11:19;9.23;;;8.10;;
7080;SDS011;3582;51.506;11.948;2022-08-21T04:13:45;7.50;;;6.77;;
7080;SDS011;3582;51.506;11.948;2022-08-21T04:16:11;8.43;;;7.60;;
7080;SDS011;3582;51.506;11.948;2022-08-21T04:18:37;9.27;;;6.97;;
7080;SDS011;3582;51.506;11.948;2022-08-21T04:21:03;8.67;;;7.83;;
7080;SDS011;3582;51.506;11.948;2022-08-21T04:23:30;9.90;;;8.70;;
7080;SDS011;3582;51.506;11.948;2022-08-21T04:25:56;12.00;;;8.73;;
7080;SDS011;3582;51.506;11.948;2022-08-21T04:28:23;9.33;;;8.50;;
7080;SDS011;3582;51.506;11.948;2022-08-21T04:30:50;9.93;;;8.90;;
7080;SDS011;3582;51.506;11.948;2022-08-21T04:33:16;11.00;;;8.53;;
7080;SDS011;3582;51.506;11.948;2022-08-21T04:35:43;13.97;;;8.23;;
7080;SDS011;3582;51.506;11.948;2022-08-21T04:38:09;9.43;;;8.60;;
7080;SDS011;3582;51.506;11.948;2022-08-21T04:40:35;8.80;;;7.63;;
7080;SDS011;3582;51.506;11.948;2022-08-21T04:43:02;10.50;;;8.30;;
7080;SDS011;3582;51.506;11.948;2022-08-21T04:45:30;10.77;;;8.03;;
7080;SDS011;3582;51.506;11.948;2022-08-21T04:47:57;8.23;;;7.53;;
7080;SDS011;3582;51.506;11.948;2022-08-21T04:50:25;13.13;;;8.80;;
7080;SDS011;3582;51.506;11.948;2022-08-21T04:52:52;10.13;;;8.97;;
7080;SDS011;3582;51.506;11.948;2022-08-21T04:55:18;10.60;;;7.90;;
7080;SDS011;3582;51.506;11.948;2022-08-21T04:57:45;8.60;;;7.80;;
7080;SDS011;3582;51.506;11.948;2022-08-21T05:00:11;9.47;;;7.70;;
7080;SDS011;3582;51.506;11.948;2022-08-21T05:02:38;10.10;;;8.63;;
7080;SDS011;3582;51.506;11.948;2022-08-21T05:05:05;8.27;;;7.10;;
7080;SDS011;3582;51.506;11.948;2022-08-21T05:07:31;10.80;;;8.20;;
7080;SDS011;3582;51.506;11.948;2022-08-21T05:09:58;12.30;;;8.43;;
7080;SDS011;3582;51.506;11.948;2022-08-21T05:12:24;11.43;;;7.60;;
7080;SDS011;3582;51.506;11.948;2022-08-21T05:14:50;8.70;;;7.67;;
7080;SDS011;3582;51.506;11.948;2022-08-21T05:17:16;7.90;;;7.20;;
7080;SDS011;3582;51.506;11.948;2022-08-21T05:19:42;7.57;;;6.87;;
7080;SDS011;3582;51.506;11.948;2022-08-21T05:22:08;9.33;;;7.50;;
7080;SDS011;3582;51.506;11.948;2022-08-21T05:24:34;11.40;;;8.10;;
7080;SDS011;3582;51.506;11.948;2022-08-21T05:27:00;7.70;;;7.00;;
7080;SDS011;3582;51.506;11.948;2022-08-21T05:29:26;8.03;;;7.20;;
7080;SDS011;3582;51.506;11.948;2022-08-21T05:31:56;7.60;;;6.80;;
7080;SDS011;3582;51.506;11.948;2022-08-21T05:34:22;8.20;;;6.10;;
7080;SDS011;3582;51.506;11.948;2022-08-21T05:36:48;7.90;;;6.80;;
7080;SDS011;3582;51.506;11.948;2022-08-21T05:39:14;6.87;;;5.90;;
7080;SDS011;3582;51.506;11.948;2022-08-21T05:41:40;9.03;;;6.20;;
7080;SDS011;3582;51.506;11.948;2022-08-21T05:44:06;11.17;;;6.50;;
7080;SDS011;3582;51.506;11.948;2022-08-21T05:46:32;7.97;;;6.23;;
7080;SDS011;3582;51.506;11.948;2022-08-21T05:48:58;6.83;;;5.03;;
7080;SDS011;3582;51.506;11.948;2022-08-21T05:51:24;7.40;;;5.57;;
7080;SDS011;3582;51.506;11.948;2022-08-21T05:53:50;6.70;;;5.33;;
7080;SDS011;3582;51.506;11.948;2022-08-21T05:56:16;6.23;;;5.73;;
7080;SDS011;3582;51.506;11.948;2022-08-21T05:58:42;6.27;;;5.10;;
7080;SDS011;3582;51.506;11.948;2022-08-21T06:01:08;8.40;;;5.60;;
7080;SDS011;3582;51.506;11.948;2022-08-21T06:03:36;6.50;;;5.70;;
7080;SDS011;3582;51.506;11.948;2022-08-21T06:06:02;6.43;;;5.80;;
7080;SDS011;3582;51.506;11.948;2022-08-21T06:08:28;5.80;;;5.40;;
7080;SDS011;3582;51.506;11.948;2022-08-21T06:10:55;5.57;;;5.17;;
7080;SDS011;3582;51.506;11.948;2022-08-21T06:13:22;7.07;;;6.40;;
7080;SDS011;3582;51.506;11.948;2022-08-21T06:15:49;5.10;;;4.70;;
7080;SDS011;3582;51.506;11.948;2022-08-21T06:18:15;5.40;;;4.87;;
7080;SDS011;3582;51.506;11.948;2022-08-21T06:20:41;6.93;;;5.10;;
7080;SDS011;3582;51.506;11.948;2022-08-21T06:23:07;11.30;;;6.00;;
7080;SDS011;3582;51.506;11.948;2022-08-21T06:25:34;9.50;;;8.18;;
7080;SDS011;3582;51.506;11.948;2022-08-21T06:28:03;5.90;;;5.07;;
7080;SDS011;3582;51.506;11.948;2022-08-21T06:30:30;7.50;;;5.50;;
7080;SDS011;3582;51.506;11.948;2022-08-21T06:32:56;10.13;;;4.50;;
7080;SDS011;3582;51.506;11.948;2022-08-21T06:35:22;9.40;;;4.80;;
7080;SDS011;3582;51.506;11.948;2022-08-21T06:37:49;5.50;;;4.90;;
7080;SDS011;3582;51.506;11.948;2022-08-21T06:40:15;8.40;;;4.17;;
7080;SDS011;3582;51.506;11.948;2022-08-21T06:42:41;5.00;;;4.53;;
7080;SDS011;3582;51.506;11.948;2022-08-21T06:45:08;9.23;;;5.13;;
7080;SDS011;3582;51.506;11.948;2022-08-21T06:47:34;8.20;;;4.80;;
7080;SDS011;3582;51.506;11.948;2022-08-21T06:50:00;5.73;;;5.17;;
7080;SDS011;3582;51.506;11.948;2022-08-21T06:52:26;5.07;;;4.53;;
7080;SDS011;3582;51.506;11.948;2022-08-21T06:54:51;8.73;;;5.10;;
7080;SDS011;3582;51.506;11.948;2022-08-21T06:57:17;7.50;;;5.73;;
7080;SDS011;3582;51.506;11.948;2022-08-21T06:59:43;5.87;;;4.50;;
7080;SDS011;3582;51.506;11.948;2022-08-21T07:02:09;13.43;;;5.00;;
7080;SDS011;3582;51.506;11.948;2022-08-21T07:04:35;6.90;;;4.70;;
7080;SDS011;3582;51.506;11.948;2022-08-21T07:07:01;15.57;;;6.03;;
7080;SDS011;3582;51.506;11.948;2022-08-21T07:09:27;6.93;;;4.77;;
7080;SDS011;3582;51.506;11.948;2022-08-21T07:11:53;6.43;;;4.17;;
7080;SDS011;3582;51.506;11.948;2022-08-21T07:14:20;4.33;;;3.93;;
7080;SDS011;3582;51.506;11.948;2022-08-21T07:16:46;5.70;;;3.70;;
7080;SDS011;3582;51.506;11.948;2022-08-21T07:19:12;5.97;;;4.30;;
7080;SDS011;3582;51.506;11.948;2022-08-21T07:21:38;5.50;;;4.07;;
7080;SDS011;3582;51.506;11.948;2022-08-21T07:24:04;8.07;;;5.77;;
7080;SDS011;3582;51.506;11.948;2022-08-21T07:26:30;8.90;;;5.80;;
7080;SDS011;3582;51.506;11.948;2022-08-21T07:28:56;5.97;;;3.93;;
7080;SDS011;3582;51.506;11.948;2022-08-21T07:31:22;4.60;;;4.07;;
7080;SDS011;3582;51.506;11.948;2022-08-21T07:33:48;6.63;;;3.90;;
7080;SDS011;3582;51.506;11.948;2022-08-21T07:36:14;4.17;;;3.87;;
7080;SDS011;3582;51.506;11.948;2022-08-21T07:38:40;5.30;;;3.80;;
7080;SDS011;3582;51.506;11.948;2022-08-21T07:41:10;5.97;;;4.13;;
7080;SDS011;3582;51.506;11.948;2022-08-21T07:43:38;4.20;;;3.80;;
7080;SDS011;3582;51.506;11.948;2022-08-21T07:46:04;7.03;;;4.83;;
7080;SDS011;3582;51.506;11.948;2022-08-21T07:48:30;9.60;;;4.67;;
7080;SDS011;3582;51.506;11.948;2022-08-21T07:51:05;5.47;;;4.00;;
7080;SDS011;3582;51.506;11.948;2022-08-21T07:53:31;4.50;;;3.90;;
7080;SDS011;3582;51.506;11.948;2022-08-21T07:55:58;7.57;;;4.20;;
7080;SDS011;3582;51.506;11.948;2022-08-21T07:58:24;4.30;;;3.83;;
7080;SDS011;3582;51.506;11.948;2022-08-21T08:00:50;7.60;;;3.77;;
7080;SDS011;3582;51.506;11.948;2022-08-21T08:03:16;5.50;;;4.00;;
7080;SDS011;3582;51.506;11.948;2022-08-21T08:05:44;8.10;;;4.63;;
7080;SDS011;3582;51.506;11.948;2022-08-21T08:08:10;5.00;;;3.80;;
7080;SDS011;3582;51.506;11.948;2022-08-21T08:10:36;4.00;;;3.60;;
7080;SDS011;3582;51.506;11.948;2022-08-21T08:13:02;6.20;;;4.30;;
7080;SDS011;3582;51.506;11.948;2022-08-21T08:15:28;5.47;;;3.90;;
7080;SDS011;3582;51.506;11.948;2022-08-21T08:17:55;8.10;;;4.63;;
7080;SDS011;3582;51.506;11.948;2022-08-21T08:20:22;3.77;;;3.37;;
7080;SDS011;3582;51.506;11.948;2022-08-21T08:22:50;4.20;;;3.80;;
7080;SDS011;3582;51.506;11.948;2022-08-21T08:25:16;10.77;;;3.93;;
7080;SDS011;3582;51.506;11.948;2022-08-21T08:27:43;8.20;;;3.70;;
7080;SDS011;3582;51.506;11.948;2022-08-21T08:30:10;3.10;;;2.90;;
7080;SDS011;3582;51.506;11.948;2022-08-21T08:32:36;7.07;;;3.93;;
7080;SDS011;3582;51.506;11.948;2022-08-21T08:35:04;3.03;;;2.83;;
7080;SDS011;3582;51.506;11.948;2022-08-21T08:37:30;7.17;;;5.10;;
7080;SDS011;3582;51.506;11.948;2022-08-21T08:39:56;7.20;;;3.40;;
7080;SDS011;3582;51.506;11.948;2022-08-21T08:42:27;5.70;;;3.90;;
7080;SDS011;3582;51.506;11.948;2022-08-21T08:44:57;3.17;;;2.87;;
7080;SDS011;3582;51.506;11.948;2022-08-21T08:47:24;4.87;;;3.80;;
7080;SDS011;3582;51.506;11.948;2022-08-21T08:52:53;6.93;;;3.50;;
7080;SDS011;3582;51.506;11.948;2022-08-21T08:55:33;4.50;;;2.63;;
7080;SDS011;3582;51.506;11.948;2022-08-21T08:57:59;5.90;;;2.77;;
7080;SDS011;3582;51.506;11.948;2022-08-21T09:00:27;6.83;;;2.60;;
7080;SDS011;3582;51.506;11.948;2022-08-21T09:02:54;2.37;;;2.17;;
7080;SDS011;3582;51.506;11.948;2022-08-21T09:05:22;9.13;;;3.57;;
7080;SDS011;3582;51.506;11.948;2022-08-21T09:10:35;5.77;;;3.43;;
7080;SDS011;3582;51.506;11.948;2022-08-21T09:15:39;4.00;;;3.00;;
7080;SDS011;3582;51.506;11.948;2022-08-21T09:18:17;6.07;;;3.40;;
7080;SDS011;3582;51.506;11.948;2022-08-21T09:20:50;3.97;;;2.83;;
7080;SDS011;3582;51.506;11.948;2022-08-21T09:23:34;8.60;;;3.10;;
7080;SDS011;3582;51.506;11.948;2022-08-21T09:26:14;6.50;;;2.67;;
7080;SDS011;3582;51.506;11.948;2022-08-21T09:28:40;4.57;;;2.60;;
7080;SDS011;3582;51.506;11.948;2022-08-21T09:31:08;3.30;;;2.83;;
7080;SDS011;3582;51.506;11.948;2022-08-21T09:33:34;3.30;;;3.00;;
7080;SDS011;3582;51.506;11.948;2022-08-21T09:36:00;4.57;;;2.67;;
7080;SDS011;3582;51.506;11.948;2022-08-21T09:38:28;3.70;;;2.50;;
7080;SDS011;3582;51.506;11.948;2022-08-21T09:41:00;3.60;;;2.87;;
7080;SDS011;3582;51.506;11.948;2022-08-21T09:43:28;5.20;;;2.70;;
7080;SDS011;3582;51.506;11.948;2022-08-21T09:46:03;2.63;;;2.53;;
7080;SDS011;3582;51.506;11.948;2022-08-21T09:48:29;5.03;;;2.97;;
7080;SDS011;3582;51.506;11.948;2022-08-21T09:51:05;10.23;;;2.80;;
7080;SDS011;3582;51.506;11.948;2022-08-21T09:53:31;4.93;;;2.77;;
7080;SDS011;3582;51.506;11.948;2022-08-21T09:56:14;3.20;;;2.20;;
7080;SDS011;3582;51.506;11.948;2022-08-21T09:59:00;7.90;;;3.10;;
7080;SDS011;3582;51.506;11.948;2022-08-21T10:01:26;6.10;;;2.90;;
7080;SDS011;3582;51.506;11.948;2022-08-21T10:04:02;4.30;;;3.10;;
7080;SDS011;3582;51.506;11.948;2022-08-21T10:06:28;5.90;;;2.70;;
7080;SDS011;3582;51.506;11.948;2022-08-21T10:09:05;8.17;;;2.90;;
7080;SDS011;3582;51.506;11.948;2022-08-21T10:11:31;3.37;;;3.07;;
7080;SDS011;3582;51.506;11.948;2022-08-21T10:14:01;5.53;;;4.57;;
7080;SDS011;3582;51.506;11.948;2022-08-21T10:16:33;6.30;;;2.83;;
7080;SDS011;3582;51.506;11.948;2022-08-21T10:19:05;6.43;;;2.47;;
7080;SDS011;3582;51.506;11.948;2022-08-21T10:24:32;5.10;;;2.43;;
7080;SDS011;3582;51.506;11.948;2022-08-21T10:27:05;2.63;;;2.43;;
7080;SDS011;3582;51.506;11.948;2022-08-21T10:29:53;3.30;;;3.00;;
7080;SDS011;3582;51.506;11.948;2022-08-21T10:35:02;4.93;;;2.27;;
7080;SDS011;3582;51.506;11.948;2022-08-21T10:37:41;5.30;;;2.20;;
7080;SDS011;3582;51.506;11.948;2022-08-21T10:42:49;3.27;;;2.80;;
7080;SDS011;3582;51.506;11.948;2022-08-21T10:48:04;10.27;;;2.63;;
7080;SDS011;3582;51.506;11.948;2022-08-21T10:50:31;3.53;;;2.63;;
7080;SDS011;3582;51.506;11.948;2022-08-21T10:55:44;7.57;;;3.27;;
7080;SDS011;3582;51.506;11.948;2022-08-21T10:58:14;3.83;;;2.70;;
7080;SDS011;3582;51.506;11.948;2022-08-21T11:00:49;4.17;;;2.53;;
7080;SDS011;3582;51.506;11.948;2022-08-21T11:03:24;6.87;;;2.70;;
7080;SDS011;3582;51.506;11.948;2022-08-21T11:05:54;4.97;;;2.97;;
7080;SDS011;3582;51.506;11.948;2022-08-21T11:08:32;5.53;;;3.13;;
7080;SDS011;3582;51.506;11.948;2022-08-21T11:13:51;5.53;;;3.10;;
7080;SDS011;3582;51.506;11.948;2022-08-21T11:19:08;4.07;;;3.27;;
7080;SDS011;3582;51.506;11.948;2022-08-21T11:21:37;4.53;;;2.97;;
7080;SDS011;3582;51.506;11.948;2022-08-21T11:27:00;4.20;;;3.17;;
7080;SDS011;3582;51.506;11.948;2022-08-21T11:29:33;4.37;;;3.20;;
7080;SDS011;3582;51.506;11.948;2022-08-21T11:32:07;8.03;;;3.70;;
7080;SDS011;3582;51.506;11.948;2022-08-21T11:34:42;6.17;;;2.70;;
7080;SDS011;3582;51.506;11.948;2022-08-21T11:37:15;4.00;;;2.47;;
7080;SDS011;3582;51.506;11.948;2022-08-21T11:39:47;4.50;;;2.53;;
7080;SDS011;3582;51.506;11.948;2022-08-21T11:42:22;5.27;;;3.17;;
7080;SDS011;3582;51.506;11.948;2022-08-21T11:45:07;6.93;;;3.00;;
7080;SDS011;3582;51.506;11.948;2022-08-21T11:47:49;3.73;;;3.43;;
7080;SDS011;3582;51.506;11.948;2022-08-21T11:50:20;7.50;;;3.37;;
7080;SDS011;3582;51.506;11.948;2022-08-21T11:52:50;3.90;;;2.80;;
7080;SDS011;3582;51.506;11.948;2022-08-21T11:55:23;3.83;;;3.53;;
7080;SDS011;3582;51.506;11.948;2022-08-21T11:57:54;6.10;;;3.63;;
7080;SDS011;3582;51.506;11.948;2022-08-21T12:00:22;4.67;;;3.70;;
7080;SDS011;3582;51.506;11.948;2022-08-21T12:02:51;3.40;;;3.10;;
7080;SDS011;3582;51.506;11.948;2022-08-21T12:05:31;4.50;;;2.80;;
7080;SDS011;3582;51.506;11.948;2022-08-21T12:11:02;5.57;;;2.92;;
7080;SDS011;3582;51.506;11.948;2022-08-21T12:13:30;7.00;;;3.80;;
7080;SDS011;3582;51.506;11.948;2022-08-21T12:16:06;6.53;;;3.47;;
7080;SDS011;3582;51.506;11.948;2022-08-21T12:18:33;3.53;;;2.90;;
7080;SDS011;3582;51.506;11.948;2022-08-21T12:23:32;4.03;;;2.93;;
7080;SDS011;3582;51.506;11.948;2022-08-21T12:26:09;3.87;;;3.00;;
7080;SDS011;3582;51.506;11.948;2022-08-21T12:28:36;2.83;;;2.57;;
7080;SDS011;3582;51.506;11.948;2022-08-21T12:31:02;6.80;;;3.23;;
7080;SDS011;3582;51.506;11.948;2022-08-21T12:33:30;5.23;;;3.33;;
7080;SDS011;3582;51.506;11.948;2022-08-21T12:36:02;3.60;;;2.80;;
7080;SDS011;3582;51.506;11.948;2022-08-21T12:38:33;5.03;;;3.67;;
7080;SDS011;3582;51.506;11.948;2022-08-21T12:41:01;7.90;;;4.33;;
7080;SDS011;3582;51.506;11.948;2022-08-21T12:43:30;3.70;;;3.30;;
7080;SDS011;3582;51.506;11.948;2022-08-21T12:45:58;4.47;;;3.13;;
7080;SDS011;3582;51.506;11.948;2022-08-21T12:48:47;8.00;;;3.87;;
7080;SDS011;3582;51.506;11.948;2022-08-21T12:51:15;3.33;;;2.93;;
7080;SDS011;3582;51.506;11.948;2022-08-21T12:53:44;4.33;;;3.37;;
7080;SDS011;3582;51.506;11.948;2022-08-21T12:56:14;6.83;;;4.03;;
7080;SDS011;3582;51.506;11.948;2022-08-21T12:58:44;4.20;;;3.80;;
7080;SDS011;3582;51.506;11.948;2022-08-21T13:01:17;4.70;;;3.13;;
7080;SDS011;3582;51.506;11.948;2022-08-21T13:03:45;6.80;;;6.30;;
7080;SDS011;3582;51.506;11.948;2022-08-21T13:06:15;3.20;;;3.00;;
7080;SDS011;3582;51.506;11.948;2022-08-21T13:08:43;7.73;;;3.70;;
7080;SDS011;3582;51.506;11.948;2022-08-21T13:11:09;5.70;;;4.13;;
7080;SDS011;3582;51.506;11.948;2022-08-21T13:13:35;5.03;;;3.10;;
7080;SDS011;3582;51.506;11.948;2022-08-21T13:16:04;6.40;;;3.43;;
7080;SDS011;3582;51.506;11.948;2022-08-21T13:18:32;3.17;;;3.03;;
7080;SDS011;3582;51.506;11.948;2022-08-21T13:21:03;6.40;;;3.20;;
7080;SDS011;3582;51.506;11.948;2022-08-21T13:23:29;4.70;;;3.17;;
7080;SDS011;3582;51.506;11.948;2022-08-21T13:25:56;4.73;;;3.13;;
7080;SDS011;3582;51.506;11.948;2022-08-21T13:28:22;4.83;;;3.50;;
7080;SDS011;3582;51.506;11.948;2022-08-21T13:30:50;3.87;;;3.50;;
7080;SDS011;3582;51.506;11.948;2022-08-21T13:33:17;3.60;;;3.30;;
7080;SDS011;3582;51.506;11.948;2022-08-21T13:38:24;3.40;;;3.10;;
7080;SDS011;3582;51.506;11.948;2022-08-21T13:40:51;4.73;;;3.43;;
7080;SDS011;3582;51.506;11.948;2022-08-21T13:43:20;6.37;;;2.60;;
7080;SDS011;3582;51.506;11.948;2022-08-21T13:45:53;3.73;;;3.13;;
7080;SDS011;3582;51.506;11.948;2022-08-21T13:48:19;4.70;;;2.83;;
7080;SDS011;3582;51.506;11.948;2022-08-21T13:50:46;6.30;;;2.80;;
7080;SDS011;3582;51.506;11.948;2022-08-21T13:55:53;5.43;;;3.40;;
7080;SDS011;3582;51.506;11.948;2022-08-21T13:58:32;4.70;;;2.67;;
7080;SDS011;3582;51.506;11.948;2022-08-21T14:00:59;3.50;;;2.40;;
7080;SDS011;3582;51.506;11.948;2022-08-21T14:03:36;3.70;;;2.63;;
7080;SDS011;3582;51.506;11.948;2022-08-21T14:09:07;6.70;;;3.00;;
7080;SDS011;3582;51.506;11.948;2022-08-21T14:11:34;3.00;;;2.70;;
7080;SDS011;3582;51.506;11.948;2022-08-21T14:14:02;3.83;;;3.40;;
7080;SDS011;3582;51.506;11.948;2022-08-21T14:16:42;6.37;;;3.60;;
7080;SDS011;3582;51.506;11.948;2022-08-21T14:19:18;5.30;;;3.20;;
7080;SDS011;3582;51.506;11.948;2022-08-21T14:21:45;5.53;;;3.67;;
7080;SDS011;3582;51.506;11.948;2022-08-21T14:24:12;4.30;;;3.33;;
7080;SDS011;3582;51.506;11.948;2022-08-21T14:27:01;6.50;;;3.30;;
7080;SDS011;3582;51.506;11.948;2022-08-21T14:29:28;3.67;;;2.90;;
7080;SDS011;3582;51.506;11.948;2022-08-21T14:31:58;6.23;;;3.80;;
7080;SDS011;3582;51.506;11.948;2022-08-21T14:34:25;6.43;;;3.20;;
7080;SDS011;3582;51.506;11.948;2022-08-21T14:36:52;11.17;;;3.40;;
7080;SDS011;3582;51.506;11.948;2022-08-21T14:39:18;5.03;;;4.53;;
7080;SDS011;3582;51.506;11.948;2022-08-21T14:41:44;9.67;;;4.17;;
7080;SDS011;3582;51.506;11.948;2022-08-21T14:44:13;6.00;;;3.53;;
7080;SDS011;3582;51.506;11.948;2022-08-21T14:46:39;3.90;;;3.60;;
7080;SDS011;3582;51.506;11.948;2022-08-21T14:49:05;4.63;;;3.77;;
7080;SDS011;3582;51.506;11.948;2022-08-21T14:51:31;2.93;;;2.73;;
7080;SDS011;3582;51.506;11.948;2022-08-21T14:53:57;10.63;;;3.80;;
7080;SDS011;3582;51.506;11.948;2022-08-21T14:56:23;4.53;;;3.50;;
7080;SDS011;3582;51.506;11.948;2022-08-21T14:58:51;3.80;;;3.50;;
7080;SDS011;3582;51.506;11.948;2022-08-21T15:01:18;7.20;;;4.07;;
7080;SDS011;3582;51.506;11.948;2022-08-21T15:03:44;3.97;;;3.67;;
7080;SDS011;3582;51.506;11.948;2022-08-21T15:06:11;4.53;;;4.10;;
7080;SDS011;3582;51.506;11.948;2022-08-21T15:08:37;6.00;;;3.47;;
7080;SDS011;3582;51.506;11.948;2022-08-21T15:11:04;3.23;;;2.93;;
7080;SDS011;3582;51.506;11.948;2022-08-21T15:13:30;8.90;;;4.53;;
7080;SDS011;3582;51.506;11.948;2022-08-21T15:15:56;8.97;;;3.53;;
7080;SDS011;3582;51.506;11.948;2022-08-21T15:18:23;3.97;;;3.10;;
7080;SDS011;3582;51.506;11.948;2022-08-21T15:20:49;6.43;;;3.53;;
7080;SDS011;3582;51.506;11.948;2022-08-21T15:23:16;6.97;;;4.00;;
7080;SDS011;3582;51.506;11.948;2022-08-21T15:25:43;7.10;;;3.63;;
7080;SDS011;3582;51.506;11.948;2022-08-21T15:28:10;10.90;;;3.47;;
7080;SDS011;3582;51.506;11.948;2022-08-21T15:30:37;3.60;;;3.30;;
7080;SDS011;3582;51.506;11.948;2022-08-21T15:33:03;6.43;;;3.70;;
7080;SDS011;3582;51.506;11.948;2022-08-21T15:35:29;4.97;;;3.47;;
7080;SDS011;3582;51.506;11.948;2022-08-21T15:37:55;5.10;;;3.47;;
7080;SDS011;3582;51.506;11.948;2022-08-21T15:40:22;5.00;;;3.47;;
7080;SDS011;3582;51.506;11.948;2022-08-21T15:42:48;4.67;;;3.70;;
7080;SDS011;3582;51.506;11.948;2022-08-21T15:45:17;4.80;;;3.13;;
7080;SDS011;3582;51.506;11.948;2022-08-21T15:47:43;4.53;;;3.43;;